sensor_id;sensor_type;location;lat;lon;timestamp;P1;durP1;ratioP1;P2;durP2;ratioP2
44366;SDS011;30086;57.660;12.000;2023-04-25T00:00:30;26.83;;;17.38;;
44366;SDS011;30086;57.660;12.000;2023-04-25T00:02:56;25.20;;;17.38;;
44366;SDS011;30086;57.660;12.000;2023-04-25T00:05:22;26.45;;;17.05;;
44366;SDS011;30086;57.660;12.000;2023-04-25T00:07:51;28.13;;;16.77;;
44366;SDS011;30086;57.660;12.000;2023-04-25T00:10:18;30.10;;;18.27;;
44366;SDS011;30086;57.660;12.000;2023-04-25T00:12:44;28.90;;;18.52;;
44366;SDS011;30086;57.660;12.000;2023-04-25T00:15:11;31.58;;;19.02;;
44366;SDS011;30086;57.660;12.000;2023-04-25T00:17:37;33.22;;;18.00;;
44366;SDS011;30086;57.660;12.000;2023-04-25T00:20:04;32.50;;;18.83;;
44366;SDS011;30086;57.660;12.000;2023-04-25T00:22:30;32.53;;;18.92;;
44366;SDS011;30086;57.660;12.000;2023-04-25T00:24:56;32.80;;;18.42;;
44366;SDS011;30086;57.660;12.000;2023-04-25T00:27:25;38.53;;;18.23;;
44366;SDS011;30086;57.660;12.000;2023-04-25T00:29:51;34.63;;;19.00;;
44366;SDS011;30086;57.660;12.000;2023-04-25T00:32:17;36.70;;;20.45;;
44366;SDS011;30086;57.660;12.000;2023-04-25T00:34:43;34.67;;;20.27;;
44366;SDS011;30086;57.660;12.000;2023-04-25T00:37:09;40.72;;;20.58;;
44366;SDS011;30086;57.660;12.000;2023-04-25T00:39:35;43.88;;;22.63;;
44366;SDS011;30086;57.660;12.000;2023-04-25T00:42:01;44.17;;;22.30;;
44366;SDS011;30086;57.660;12.000;2023-04-25T00:44:29;46.72;;;22.20;;
44366;SDS011;30086;57.660;12.000;2023-04-25T00:46:55;44.65;;;24.67;;
44366;SDS011;30086;57.660;12.000;2023-04-25T00:49:21;48.70;;;25.20;;
44366;SDS011;30086;57.660;12.000;2023-04-25T00:51:47;51.38;;;24.45;;
44366;SDS011;30086;57.660;12.000;2023-04-25T00:54:13;48.15;;;24.77;;
44366;SDS011;30086;57.660;12.000;2023-04-25T00:56:40;51.45;;;25.83;;
44366;SDS011;30086;57.660;12.000;2023-04-25T00:59:07;53.92;;;25.65;;
44366;SDS011;30086;57.660;12.000;2023-04-25T01:01:33;57.38;;;26.10;;
44366;SDS011;30086;57.660;12.000;2023-04-25T01:04:00;55.25;;;25.98;;
44366;SDS011;30086;57.660;12.000;2023-04-25T01:06:26;55.35;;;26.63;;
44366;SDS011;30086;57.660;12.000;2023-04-25T01:08:53;55.63;;;25.92;;
44366;SDS011;30086;57.660;12.000;2023-04-25T01:11:19;58.55;;;26.35;;
44366;SDS011;30086;57.660;12.000;2023-04-25T01:13:45;55.17;;;26.85;;
44366;SDS011;30086;57.660;12.000;2023-04-25T01:16:11;51.63;;;25.02;;
44366;SDS011;30086;57.660;12.000;2023-04-25T01:18:40;57.45;;;26.48;;
44366;SDS011;30086;57.660;12.000;2023-04-25T01:21:07;60.50;;;25.27;;
44366;SDS011;30086;57.660;12.000;2023-04-25T01:23:35;56.20;;;26.38;;
44366;SDS011;30086;57.660;12.000;2023-04-25T01:26:01;58.10;;;24.88;;
44366;SDS011;30086;57.660;12.000;2023-04-25T01:28:27;55.92;;;24.48;;
44366;SDS011;30086;57.660;12.000;2023-04-25T01:30:53;51.70;;;23.25;;
44366;SDS011;30086;57.660;12.000;2023-04-25T01:33:19;50.33;;;23.52;;
44366;SDS011;30086;57.660;12.000;2023-04-25T01:35:46;52.80;;;24.45;;
44366;SDS011;30086;57.660;12.000;2023-04-25T01:38:13;52.03;;;24.10;;
44366;SDS011;30086;57.660;12.000;2023-04-25T01:40:40;48.30;;;22.30;;
44366;SDS011;30086;57.660;12.000;2023-04-25T01:43:09;56.78;;;24.13;;
44366;SDS011;30086;57.660;12.000;2023-04-25T01:45:37;46.75;;;21.23;;
44366;SDS011;30086;57.660;12.000;2023-04-25T01:48:06;45.90;;;21.83;;
44366;SDS011;30086;57.660;12.000;2023-04-25T01:50:32;44.70;;;21.77;;
44366;SDS011;30086;57.660;12.000;2023-04-25T01:52:58;43.17;;;21.83;;
44366;SDS011;30086;57.660;12.000;2023-04-25T01:55:24;40.95;;;19.85;;
44366;SDS011;30086;57.660;12.000;2023-04-25T01:57:50;39.97;;;17.95;;
44366;SDS011;30086;57.660;12.000;2023-04-25T02:00:16;31.90;;;18.25;;
44366;SDS011;30086;57.660;12.000;2023-04-25T02:02:42;33.30;;;17.73;;
44366;SDS011;30086;57.660;12.000;2023-04-25T02:05:08;31.63;;;18.13;;
44366;SDS011;30086;57.660;12.000;2023-04-25T02:07:35;38.03;;;18.23;;
44366;SDS011;30086;57.660;12.000;2023-04-25T02:10:01;31.90;;;16.75;;
44366;SDS011;30086;57.660;12.000;2023-04-25T02:12:27;30.10;;;15.93;;
44366;SDS011;30086;57.660;12.000;2023-04-25T02:14:53;29.90;;;16.02;;
44366;SDS011;30086;57.660;12.000;2023-04-25T02:17:19;31.52;;;16.75;;
44366;SDS011;30086;57.660;12.000;2023-04-25T02:19:46;29.35;;;15.95;;
44366;SDS011;30086;57.660;12.000;2023-04-25T02:22:13;26.92;;;15.75;;
44366;SDS011;30086;57.660;12.000;2023-04-25T02:24:39;24.40;;;14.40;;
44366;SDS011;30086;57.660;12.000;2023-04-25T02:27:05;27.63;;;15.38;;
44366;SDS011;30086;57.660;12.000;2023-04-25T02:29:31;26.60;;;14.98;;
44366;SDS011;30086;57.660;12.000;2023-04-25T02:31:57;30.33;;;15.95;;
44366;SDS011;30086;57.660;12.000;2023-04-25T02:34:23;29.38;;;15.85;;
44366;SDS011;30086;57.660;12.000;2023-04-25T02:36:49;26.27;;;14.90;;
44366;SDS011;30086;57.660;12.000;2023-04-25T02:39:18;27.75;;;15.90;;
44366;SDS011;30086;57.660;12.000;2023-04-25T02:41:44;28.23;;;15.25;;
44366;SDS011;30086;57.660;12.000;2023-04-25T02:44:10;28.67;;;16.25;;
44366;SDS011;30086;57.660;12.000;2023-04-25T02:46:36;30.23;;;15.93;;
44366;SDS011;30086;57.660;12.000;2023-04-25T02:49:02;30.45;;;16.83;;
44366;SDS011;30086;57.660;12.000;2023-04-25T02:51:28;31.42;;;16.58;;
44366;SDS011;30086;57.660;12.000;2023-04-25T02:53:55;28.38;;;17.00;;
44366;SDS011;30086;57.660;12.000;2023-04-25T02:56:21;29.08;;;16.98;;
44366;SDS011;30086;57.660;12.000;2023-04-25T02:58:47;28.70;;;17.00;;
44366;SDS011;30086;57.660;12.000;2023-04-25T03:01:13;26.52;;;16.00;;
44366;SDS011;30086;57.660;12.000;2023-04-25T03:03:39;28.52;;;15.18;;
44366;SDS011;30086;57.660;12.000;2023-04-25T03:06:05;26.67;;;15.10;;
44366;SDS011;30086;57.660;12.000;2023-04-25T03:08:32;23.75;;;14.02;;
44366;SDS011;30086;57.660;12.000;2023-04-25T03:10:59;22.50;;;13.82;;
44366;SDS011;30086;57.660;12.000;2023-04-25T03:13:25;22.67;;;13.68;;
44366;SDS011;30086;57.660;12.000;2023-04-25T03:15:52;19.83;;;12.73;;
44366;SDS011;30086;57.660;12.000;2023-04-25T03:18:18;22.27;;;13.63;;
44366;SDS011;30086;57.660;12.000;2023-04-25T03:20:44;18.27;;;12.40;;
44366;SDS011;30086;57.660;12.000;2023-04-25T03:23:11;22.20;;;12.68;;
44366;SDS011;30086;57.660;12.000;2023-04-25T03:25:37;21.35;;;13.13;;
44366;SDS011;30086;57.660;12.000;2023-04-25T03:28:04;20.23;;;12.65;;
44366;SDS011;30086;57.660;12.000;2023-04-25T03:30:30;24.38;;;14.05;;
44366;SDS011;30086;57.660;12.000;2023-04-25T03:32:56;21.77;;;13.07;;
44366;SDS011;30086;57.660;12.000;2023-04-25T03:35:22;24.27;;;15.40;;
44366;SDS011;30086;57.660;12.000;2023-04-25T03:37:48;24.88;;;14.40;;
44366;SDS011;30086;57.660;12.000;2023-04-25T03:40:14;28.05;;;14.48;;
44366;SDS011;30086;57.660;12.000;2023-04-25T03:42:40;25.85;;;15.60;;
44366;SDS011;30086;57.660;12.000;2023-04-25T03:45:07;26.92;;;15.40;;
44366;SDS011;30086;57.660;12.000;2023-04-25T03:47:33;27.88;;;16.30;;
44366;SDS011;30086;57.660;12.000;2023-04-25T03:49:59;28.52;;;16.33;;
44366;SDS011;30086;57.660;12.000;2023-04-25T03:52:27;32.05;;;17.30;;
44366;SDS011;30086;57.660;12.000;2023-04-25T03:54:53;30.83;;;17.23;;
44366;SDS011;30086;57.660;12.000;2023-04-25T03:57:19;29.63;;;17.50;;
44366;SDS011;30086;57.660;12.000;2023-04-25T03:59:45;30.50;;;17.98;;
44366;SDS011;30086;57.660;12.000;2023-04-25T04:02:11;29.23;;;17.73;;
44366;SDS011;30086;57.660;12.000;2023-04-25T04:04:37;34.97;;;18.58;;
44366;SDS011;30086;57.660;12.000;2023-04-25T04:07:03;37.35;;;18.83;;
44366;SDS011;30086;57.660;12.000;2023-04-25T04:09:29;29.42;;;18.05;;
44366;SDS011;30086;57.660;12.000;2023-04-25T04:11:55;32.75;;;17.58;;
44366;SDS011;30086;57.660;12.000;2023-04-25T04:14:21;27.10;;;17.45;;
44366;SDS011;30086;57.660;12.000;2023-04-25T04:16:47;29.23;;;17.80;;
44366;SDS011;30086;57.660;12.000;2023-04-25T04:19:14;31.80;;;17.05;;
44366;SDS011;30086;57.660;12.000;2023-04-25T04:21:40;31.27;;;16.55;;
44366;SDS011;30086;57.660;12.000;2023-04-25T04:24:06;31.17;;;18.48;;
44366;SDS011;30086;57.660;12.000;2023-04-25T04:26:32;31.05;;;16.33;;
44366;SDS011;30086;57.660;12.000;2023-04-25T04:28:59;32.88;;;16.88;;
44366;SDS011;30086;57.660;12.000;2023-04-25T04:31:25;30.77;;;17.02;;
44366;SDS011;30086;57.660;12.000;2023-04-25T04:33:51;33.63;;;17.60;;
44366;SDS011;30086;57.660;12.000;2023-04-25T04:36:17;33.05;;;16.35;;
44366;SDS011;30086;57.660;12.000;2023-04-25T04:38:46;24.02;;;14.68;;
44366;SDS011;30086;57.660;12.000;2023-04-25T04:41:12;26.20;;;13.23;;
44366;SDS011;30086;57.660;12.000;2023-04-25T04:43:38;23.70;;;13.68;;
44366;SDS011;30086;57.660;12.000;2023-04-25T04:46:04;19.48;;;10.52;;
44366;SDS011;30086;57.660;12.000;2023-04-25T04:48:34;18.02;;;9.68;;
44366;SDS011;30086;57.660;12.000;2023-04-25T04:51:00;13.77;;;8.25;;
44366;SDS011;30086;57.660;12.000;2023-04-25T04:53:26;16.92;;;7.88;;
44366;SDS011;30086;57.660;12.000;2023-04-25T04:55:52;15.35;;;7.85;;
44366;SDS011;30086;57.660;12.000;2023-04-25T04:58:18;14.55;;;7.97;;
44366;SDS011;30086;57.660;12.000;2023-04-25T05:00:44;16.40;;;8.63;;
44366;SDS011;30086;57.660;12.000;2023-04-25T05:03:11;16.90;;;9.40;;
44366;SDS011;30086;57.660;12.000;2023-04-25T05:05:38;17.50;;;8.00;;
44366;SDS011;30086;57.660;12.000;2023-04-25T05:08:05;16.55;;;8.30;;
44366;SDS011;30086;57.660;12.000;2023-04-25T05:10:31;13.38;;;8.48;;
44366;SDS011;30086;57.660;12.000;2023-04-25T05:12:57;15.88;;;8.23;;
44366;SDS011;30086;57.660;12.000;2023-04-25T05:15:23;14.80;;;8.98;;
44366;SDS011;30086;57.660;12.000;2023-04-25T05:17:49;17.95;;;8.50;;
44366;SDS011;30086;57.660;12.000;2023-04-25T05:20:15;15.30;;;7.72;;
44366;SDS011;30086;57.660;12.000;2023-04-25T05:22:43;13.82;;;7.43;;
44366;SDS011;30086;57.660;12.000;2023-04-25T05:25:10;15.73;;;7.65;;
44366;SDS011;30086;57.660;12.000;2023-04-25T05:27:36;13.45;;;6.88;;
44366;SDS011;30086;57.660;12.000;2023-04-25T05:30:03;14.88;;;7.10;;
44366;SDS011;30086;57.660;12.000;2023-04-25T05:32:30;14.85;;;7.70;;
44366;SDS011;30086;57.660;12.000;2023-04-25T05:34:56;12.50;;;7.15;;
44366;SDS011;30086;57.660;12.000;2023-04-25T05:37:22;18.23;;;7.53;;
44366;SDS011;30086;57.660;12.000;2023-04-25T05:39:48;14.73;;;7.53;;
44366;SDS011;30086;57.660;12.000;2023-04-25T05:42:15;11.38;;;6.22;;
44366;SDS011;30086;57.660;12.000;2023-04-25T05:44:41;15.90;;;6.95;;
44366;SDS011;30086;57.660;12.000;2023-04-25T05:47:07;11.30;;;7.22;;
44366;SDS011;30086;57.660;12.000;2023-04-25T05:49:33;16.10;;;7.28;;
44366;SDS011;30086;57.660;12.000;2023-04-25T05:51:59;16.83;;;7.82;;
44366;SDS011;30086;57.660;12.000;2023-04-25T05:54:25;18.38;;;8.23;;
44366;SDS011;30086;57.660;12.000;2023-04-25T05:56:52;27.02;;;10.65;;
44366;SDS011;30086;57.660;12.000;2023-04-25T05:59:18;22.38;;;11.98;;
44366;SDS011;30086;57.660;12.000;2023-04-25T06:01:44;22.38;;;12.00;;
44366;SDS011;30086;57.660;12.000;2023-04-25T06:04:10;25.15;;;12.25;;
44366;SDS011;30086;57.660;12.000;2023-04-25T06:06:36;22.23;;;13.15;;
44366;SDS011;30086;57.660;12.000;2023-04-25T06:09:02;22.67;;;11.80;;
44366;SDS011;30086;57.660;12.000;2023-04-25T06:11:28;18.05;;;9.75;;
44366;SDS011;30086;57.660;12.000;2023-04-25T06:13:54;9.23;;;5.07;;
44366;SDS011;30086;57.660;12.000;2023-04-25T06:16:20;10.60;;;5.30;;
44366;SDS011;30086;57.660;12.000;2023-04-25T06:18:46;10.95;;;6.82;;
44366;SDS011;30086;57.660;12.000;2023-04-25T06:21:12;11.43;;;6.47;;
44366;SDS011;30086;57.660;12.000;2023-04-25T06:23:38;13.15;;;6.15;;
44366;SDS011;30086;57.660;12.000;2023-04-25T06:26:04;14.90;;;5.47;;
44366;SDS011;30086;57.660;12.000;2023-04-25T06:28:30;16.08;;;5.40;;
44366;SDS011;30086;57.660;12.000;2023-04-25T06:30:57;19.75;;;4.97;;
44366;SDS011;30086;57.660;12.000;2023-04-25T06:33:23;13.85;;;5.22;;
44366;SDS011;30086;57.660;12.000;2023-04-25T06:35:49;20.30;;;6.10;;
44366;SDS011;30086;57.660;12.000;2023-04-25T06:38:15;9.45;;;4.00;;
44366;SDS011;30086;57.660;12.000;2023-04-25T06:40:41;15.38;;;5.43;;
44366;SDS011;30086;57.660;12.000;2023-04-25T06:43:07;16.65;;;5.65;;
44366;SDS011;30086;57.660;12.000;2023-04-25T06:45:33;14.18;;;5.88;;
44366;SDS011;30086;57.660;12.000;2023-04-25T06:47:59;13.20;;;4.78;;
44366;SDS011;30086;57.660;12.000;2023-04-25T06:50:26;13.75;;;4.22;;
44366;SDS011;30086;57.660;12.000;2023-04-25T06:52:53;12.73;;;4.85;;
44366;SDS011;30086;57.660;12.000;2023-04-25T06:55:19;11.45;;;3.72;;
44366;SDS011;30086;57.660;12.000;2023-04-25T06:57:45;4.88;;;2.13;;
44366;SDS011;30086;57.660;12.000;2023-04-25T07:00:11;6.68;;;2.03;;
44366;SDS011;30086;57.660;12.000;2023-04-25T07:02:37;2.97;;;0.88;;
44366;SDS011;30086;57.660;12.000;2023-04-25T07:05:03;3.00;;;1.80;;
44366;SDS011;30086;57.660;12.000;2023-04-25T07:07:30;8.38;;;2.00;;
44366;SDS011;30086;57.660;12.000;2023-04-25T07:09:56;7.20;;;1.38;;
44366;SDS011;30086;57.660;12.000;2023-04-25T07:12:22;7.30;;;1.65;;
44366;SDS011;30086;57.660;12.000;2023-04-25T07:14:48;9.05;;;1.80;;
44366;SDS011;30086;57.660;12.000;2023-04-25T07:17:14;8.13;;;2.22;;
44366;SDS011;30086;57.660;12.000;2023-04-25T07:19:40;9.30;;;1.90;;
44366;SDS011;30086;57.660;12.000;2023-04-25T07:22:07;7.78;;;2.20;;
44366;SDS011;30086;57.660;12.000;2023-04-25T07:24:33;4.70;;;1.20;;
44366;SDS011;30086;57.660;12.000;2023-04-25T07:26:59;4.30;;;1.65;;
44366;SDS011;30086;57.660;12.000;2023-04-25T07:29:26;6.07;;;1.50;;
44366;SDS011;30086;57.660;12.000;2023-04-25T07:31:52;5.38;;;1.30;;
44366;SDS011;30086;57.660;12.000;2023-04-25T07:34:18;5.82;;;1.40;;
44366;SDS011;30086;57.660;12.000;2023-04-25T07:36:44;7.80;;;1.30;;
44366;SDS011;30086;57.660;12.000;2023-04-25T07:39:12;5.75;;;1.05;;
44366;SDS011;30086;57.660;12.000;2023-04-25T07:41:38;4.38;;;1.13;;
44366;SDS011;30086;57.660;12.000;2023-04-25T07:44:04;7.85;;;1.20;;
44366;SDS011;30086;57.660;12.000;2023-04-25T07:46:31;7.82;;;1.60;;
44366;SDS011;30086;57.660;12.000;2023-04-25T07:48:57;2.15;;;0.85;;
44366;SDS011;30086;57.660;12.000;2023-04-25T07:51:23;1.02;;;0.63;;
44366;SDS011;30086;57.660;12.000;2023-04-25T07:53:50;5.57;;;0.60;;
44366;SDS011;30086;57.660;12.000;2023-04-25T07:56:16;3.78;;;1.27;;
44366;SDS011;30086;57.660;12.000;2023-04-25T07:58:42;1.13;;;0.50;;
44366;SDS011;30086;57.660;12.000;2023-04-25T08:01:08;2.88;;;0.50;;
44366;SDS011;30086;57.660;12.000;2023-04-25T08:03:34;5.45;;;0.82;;
44366;SDS011;30086;57.660;12.000;2023-04-25T08:06:00;5.20;;;0.93;;
44366;SDS011;30086;57.660;12.000;2023-04-25T08:08:27;2.72;;;0.65;;
44366;SDS011;30086;57.660;12.000;2023-04-25T08:10:53;1.70;;;0.82;;
44366;SDS011;30086;57.660;12.000;2023-04-25T08:13:19;2.45;;;0.75;;
44366;SDS011;30086;57.660;12.000;2023-04-25T08:15:45;3.30;;;0.15;;
44366;SDS011;30086;57.660;12.000;2023-04-25T08:18:11;4.50;;;0.90;;
44366;SDS011;30086;57.660;12.000;2023-04-25T08:20:37;5.18;;;1.05;;
44366;SDS011;30086;57.660;12.000;2023-04-25T08:23:03;5.05;;;0.93;;
44366;SDS011;30086;57.660;12.000;2023-04-25T08:25:29;5.32;;;0.95;;
44366;SDS011;30086;57.660;12.000;2023-04-25T08:27:55;2.00;;;0.70;;
44366;SDS011;30086;57.660;12.000;2023-04-25T08:30:22;0.22;;;0.20;;
44366;SDS011;30086;57.660;12.000;2023-04-25T08:32:48;2.47;;;0.75;;
44366;SDS011;30086;57.660;12.000;2023-04-25T08:35:14;6.50;;;1.48;;
44366;SDS011;30086;57.660;12.000;2023-04-25T08:37:41;5.95;;;0.80;;
44366;SDS011;30086;57.660;12.000;2023-04-25T08:40:07;1.00;;;0.40;;
44366;SDS011;30086;57.660;12.000;2023-04-25T08:42:35;1.40;;;0.63;;
44366;SDS011;30086;57.660;12.000;2023-04-25T08:45:03;0.57;;;0.32;;
44366;SDS011;30086;57.660;12.000;2023-04-25T08:47:29;3.40;;;0.60;;
44366;SDS011;30086;57.660;12.000;2023-04-25T08:49:55;5.40;;;0.90;;
44366;SDS011;30086;57.660;12.000;2023-04-25T08:52:22;5.10;;;0.75;;
44366;SDS011;30086;57.660;12.000;2023-04-25T08:54:51;6.78;;;0.73;;
44366;SDS011;30086;57.660;12.000;2023-04-25T08:57:18;1.58;;;0.52;;
44366;SDS011;30086;57.660;12.000;2023-04-25T08:59:45;1.08;;;0.30;;
44366;SDS011;30086;57.660;12.000;2023-04-25T09:02:18;4.05;;;0.95;;
44366;SDS011;30086;57.660;12.000;2023-04-25T09:04:45;0.70;;;0.28;;
44366;SDS011;30086;57.660;12.000;2023-04-25T09:07:11;3.58;;;0.82;;
44366;SDS011;30086;57.660;12.000;2023-04-25T09:09:40;3.03;;;0.55;;
44366;SDS011;30086;57.660;12.000;2023-04-25T09:12:06;1.30;;;0.70;;
44366;SDS011;30086;57.660;12.000;2023-04-25T09:14:33;0.57;;;0.32;;
44366;SDS011;30086;57.660;12.000;2023-04-25T09:17:00;2.17;;;0.50;;
44366;SDS011;30086;57.660;12.000;2023-04-25T09:19:27;1.83;;;0.73;;
44366;SDS011;30086;57.660;12.000;2023-04-25T09:21:54;2.47;;;0.50;;
44366;SDS011;30086;57.660;12.000;2023-04-25T09:24:39;1.70;;;0.75;;
44366;SDS011;30086;57.660;12.000;2023-04-25T09:27:06;1.98;;;0.70;;
44366;SDS011;30086;57.660;12.000;2023-04-25T09:29:33;0.68;;;0.43;;
44366;SDS011;30086;57.660;12.000;2023-04-25T09:32:33;1.58;;;0.45;;
44366;SDS011;30086;57.660;12.000;2023-04-25T09:34:53;9.02;;;0.88;;
44366;SDS011;30086;57.660;12.000;2023-04-25T09:37:24;3.40;;;0.60;;
44366;SDS011;30086;57.660;12.000;2023-04-25T09:39:54;1.60;;;0.80;;
44366;SDS011;30086;57.660;12.000;2023-04-25T09:42:24;0.73;;;0.43;;
44366;SDS011;30086;57.660;12.000;2023-04-25T09:44:51;1.45;;;0.68;;
44366;SDS011;30086;57.660;12.000;2023-04-25T09:47:18;4.38;;;0.55;;
44366;SDS011;30086;57.660;12.000;2023-04-25T09:49:46;3.70;;;0.95;;
44366;SDS011;30086;57.660;12.000;2023-04-25T09:52:13;1.50;;;0.32;;
44366;SDS011;30086;57.660;12.000;2023-04-25T09:54:40;3.78;;;0.70;;
44366;SDS011;30086;57.660;12.000;2023-04-25T09:59:37;2.00;;;0.65;;
44366;SDS011;30086;57.660;12.000;2023-04-25T10:02:04;3.95;;;0.40;;
44366;SDS011;30086;57.660;12.000;2023-04-25T10:04:30;1.00;;;0.43;;
44366;SDS011;30086;57.660;12.000;2023-04-25T10:07:00;2.83;;;0.50;;
44366;SDS011;30086;57.660;12.000;2023-04-25T10:09:27;2.22;;;0.70;;
44366;SDS011;30086;57.660;12.000;2023-04-25T10:11:57;0.77;;;0.77;;
44366;SDS011;30086;57.660;12.000;2023-04-25T10:14:23;3.53;;;0.55;;
44366;SDS011;30086;57.660;12.000;2023-04-25T10:16:50;5.57;;;0.75;;
44366;SDS011;30086;57.660;12.000;2023-04-25T10:19:19;3.25;;;0.65;;
44366;SDS011;30086;57.660;12.000;2023-04-25T10:21:50;0.32;;;0.30;;
44366;SDS011;30086;57.660;12.000;2023-04-25T10:24:17;3.08;;;0.80;;
44366;SDS011;30086;57.660;12.000;2023-04-25T10:26:43;2.10;;;0.60;;
44366;SDS011;30086;57.660;12.000;2023-04-25T10:29:09;2.63;;;0.77;;
44366;SDS011;30086;57.660;12.000;2023-04-25T10:31:38;1.50;;;0.40;;
44366;SDS011;30086;57.660;12.000;2023-04-25T10:34:10;1.95;;;0.17;;
44366;SDS011;30086;57.660;12.000;2023-04-25T10:36:36;0.40;;;0.30;;
44366;SDS011;30086;57.660;12.000;2023-04-25T10:39:06;2.92;;;0.80;;
44366;SDS011;30086;57.660;12.000;2023-04-25T10:41:46;1.25;;;0.70;;
44366;SDS011;30086;57.660;12.000;2023-04-25T10:44:16;0.28;;;0.28;;
44366;SDS011;30086;57.660;12.000;2023-04-25T10:46:42;3.78;;;0.80;;
44366;SDS011;30086;57.660;12.000;2023-04-25T10:49:10;0.30;;;0.30;;
44366;SDS011;30086;57.660;12.000;2023-04-25T10:51:36;4.13;;;1.25;;
44366;SDS011;30086;57.660;12.000;2023-04-25T10:54:03;4.20;;;0.55;;
44366;SDS011;30086;57.660;12.000;2023-04-25T10:56:38;1.80;;;0.82;;
44366;SDS011;30086;57.660;12.000;2023-04-25T11:01:39;5.55;;;0.75;;
44366;SDS011;30086;57.660;12.000;2023-04-25T11:04:05;1.75;;;0.82;;
44366;SDS011;30086;57.660;12.000;2023-04-25T11:06:46;8.75;;;1.17;;
44366;SDS011;30086;57.660;12.000;2023-04-25T11:09:17;3.58;;;0.80;;
44366;SDS011;30086;57.660;12.000;2023-04-25T11:11:48;1.65;;;0.60;;
44366;SDS011;30086;57.660;12.000;2023-04-25T11:14:19;8.55;;;0.80;;
44366;SDS011;30086;57.660;12.000;2023-04-25T11:16:45;5.75;;;0.80;;
44366;SDS011;30086;57.660;12.000;2023-04-25T11:19:11;1.88;;;0.70;;
44366;SDS011;30086;57.660;12.000;2023-04-25T11:21:39;8.68;;;1.20;;
44366;SDS011;30086;57.660;12.000;2023-04-25T11:24:06;3.75;;;0.70;;
44366;SDS011;30086;57.660;12.000;2023-04-25T11:26:32;4.78;;;0.93;;
44366;SDS011;30086;57.660;12.000;2023-04-25T11:28:58;1.52;;;1.02;;
44366;SDS011;30086;57.660;12.000;2023-04-25T11:31:28;0.70;;;0.28;;
44366;SDS011;30086;57.660;12.000;2023-04-25T11:33:56;6.25;;;1.52;;
44366;SDS011;30086;57.660;12.000;2023-04-25T11:36:26;2.25;;;0.75;;
44366;SDS011;30086;57.660;12.000;2023-04-25T11:38:52;1.27;;;0.50;;
44366;SDS011;30086;57.660;12.000;2023-04-25T11:41:21;2.67;;;0.80;;
44366;SDS011;30086;57.660;12.000;2023-04-25T11:43:48;4.13;;;0.70;;
44366;SDS011;30086;57.660;12.000;2023-04-25T11:46:17;2.25;;;0.60;;
44366;SDS011;30086;57.660;12.000;2023-04-25T11:48:44;1.85;;;0.65;;
44366;SDS011;30086;57.660;12.000;2023-04-25T11:51:11;3.40;;;1.00;;
44366;SDS011;30086;57.660;12.000;2023-04-25T11:53:40;4.53;;;1.05;;
44366;SDS011;30086;57.660;12.000;2023-04-25T11:56:10;4.82;;;0.73;;
44366;SDS011;30086;57.660;12.000;2023-04-25T12:03:57;3.92;;;1.23;;
44366;SDS011;30086;57.660;12.000;2023-04-25T12:06:25;1.70;;;0.90;;
44366;SDS011;30086;57.660;12.000;2023-04-25T12:11:52;3.10;;;0.67;;
44366;SDS011;30086;57.660;12.000;2023-04-25T12:14:23;2.22;;;0.47;;
44366;SDS011;30086;57.660;12.000;2023-04-25T12:16:50;1.38;;;0.80;;
44366;SDS011;30086;57.660;12.000;2023-04-25T12:19:17;2.40;;;1.00;;
44366;SDS011;30086;57.660;12.000;2023-04-25T12:21:43;1.98;;;0.70;;
44366;SDS011;30086;57.660;12.000;2023-04-25T12:26:53;4.50;;;0.83;;
44366;SDS011;30086;57.660;12.000;2023-04-25T12:29:20;2.60;;;0.70;;
44366;SDS011;30086;57.660;12.000;2023-04-25T12:31:46;3.28;;;0.90;;
44366;SDS011;30086;57.660;12.000;2023-04-25T12:34:12;3.30;;;0.85;;
44366;SDS011;30086;57.660;12.000;2023-04-25T12:36:39;0.55;;;0.55;;
44366;SDS011;30086;57.660;12.000;2023-04-25T12:39:05;3.53;;;0.32;;
44366;SDS011;30086;57.660;12.000;2023-04-25T12:41:32;3.50;;;0.77;;
44366;SDS011;30086;57.660;12.000;2023-04-25T12:43:58;1.15;;;0.88;;
44366;SDS011;30086;57.660;12.000;2023-04-25T12:46:30;3.42;;;0.80;;
44366;SDS011;30086;57.660;12.000;2023-04-25T12:48:56;6.32;;;0.55;;
44366;SDS011;30086;57.660;12.000;2023-04-25T12:51:22;3.20;;;0.90;;
44366;SDS011;30086;57.660;12.000;2023-04-25T12:53:51;3.63;;;0.57;;
44366;SDS011;30086;57.660;12.000;2023-04-25T12:56:17;2.25;;;0.98;;
44366;SDS011;30086;57.660;12.000;2023-04-25T12:58:43;0.43;;;0.40;;
44366;SDS011;30086;57.660;12.000;2023-04-25T13:01:09;4.93;;;0.60;;
44366;SDS011;30086;57.660;12.000;2023-04-25T13:03:37;1.25;;;0.65;;
44366;SDS011;30086;57.660;12.000;2023-04-25T13:06:03;5.95;;;1.08;;
44366;SDS011;30086;57.660;12.000;2023-04-25T13:08:29;2.65;;;0.47;;
44366;SDS011;30086;57.660;12.000;2023-04-25T13:10:55;3.67;;;0.77;;
44366;SDS011;30086;57.660;12.000;2023-04-25T13:13:21;1.38;;;0.77;;
44366;SDS011;30086;57.660;12.000;2023-04-25T13:15:47;2.38;;;1.10;;
44366;SDS011;30086;57.660;12.000;2023-04-25T13:18:14;3.95;;;1.05;;
44366;SDS011;30086;57.660;12.000;2023-04-25T13:20:40;3.30;;;0.77;;
44366;SDS011;30086;57.660;12.000;2023-04-25T13:23:07;5.03;;;1.45;;
44366;SDS011;30086;57.660;12.000;2023-04-25T13:25:33;1.15;;;0.35;;
44366;SDS011;30086;57.660;12.000;2023-04-25T13:27:59;3.72;;;1.00;;
44366;SDS011;30086;57.660;12.000;2023-04-25T13:30:25;1.70;;;0.43;;
44366;SDS011;30086;57.660;12.000;2023-04-25T13:32:51;2.65;;;0.65;;
44366;SDS011;30086;57.660;12.000;2023-04-25T13:35:17;5.10;;;0.95;;
44366;SDS011;30086;57.660;12.000;2023-04-25T13:37:43;1.27;;;1.00;;
44366;SDS011;30086;57.660;12.000;2023-04-25T13:40:10;1.35;;;0.82;;
44366;SDS011;30086;57.660;12.000;2023-04-25T13:42:37;0.68;;;0.50;;
44366;SDS011;30086;57.660;12.000;2023-04-25T13:45:05;1.60;;;1.45;;
44366;SDS011;30086;57.660;12.000;2023-04-25T13:47:31;2.42;;;0.88;;
44366;SDS011;30086;57.660;12.000;2023-04-25T13:49:57;3.17;;;0.55;;
44366;SDS011;30086;57.660;12.000;2023-04-25T13:52:24;2.55;;;0.82;;
44366;SDS011;30086;57.660;12.000;2023-04-25T13:54:51;1.38;;;0.55;;
44366;SDS011;30086;57.660;12.000;2023-04-25T13:57:17;2.97;;;0.60;;
44366;SDS011;30086;57.660;12.000;2023-04-25T13:59:43;0.88;;;0.73;;
44366;SDS011;30086;57.660;12.000;2023-04-25T14:02:11;0.70;;;0.50;;
44366;SDS011;30086;57.660;12.000;2023-04-25T14:04:37;3.05;;;0.90;;
44366;SDS011;30086;57.660;12.000;2023-04-25T14:07:03;5.93;;;0.60;;
44366;SDS011;30086;57.660;12.000;2023-04-25T14:09:30;2.78;;;0.68;;
44366;SDS011;30086;57.660;12.000;2023-04-25T14:11:56;0.85;;;0.60;;
44366;SDS011;30086;57.660;12.000;2023-04-25T14:14:22;3.95;;;1.08;;
44366;SDS011;30086;57.660;12.000;2023-04-25T14:16:48;5.55;;;1.30;;
44366;SDS011;30086;57.660;12.000;2023-04-25T14:19:15;3.40;;;0.47;;
44366;SDS011;30086;57.660;12.000;2023-04-25T14:21:42;1.27;;;0.43;;
44366;SDS011;30086;57.660;12.000;2023-04-25T14:24:09;1.45;;;0.63;;
44366;SDS011;30086;57.660;12.000;2023-04-25T14:26:36;2.67;;;0.57;;
44366;SDS011;30086;57.660;12.000;2023-04-25T14:29:03;1.20;;;0.70;;
44366;SDS011;30086;57.660;12.000;2023-04-25T14:31:30;0.47;;;0.20;;
44366;SDS011;30086;57.660;12.000;2023-04-25T14:33:56;0.60;;;0.40;;
44366;SDS011;30086;57.660;12.000;2023-04-25T14:36:22;3.05;;;0.80;;